Time;durP1;ratioP1;P1;durP2;ratioP2;P2;SDS_P1;SDS_P2;PMS_P1;PMS_P2;Temp;Humidity;BMP_temperature;BMP_pressure;BME280_temperature;BME280_humidity;BME280_pressure;Samples;Min_cycle;Max_cycle;Signal;HPM_P1;HPM_P2
2022/08/23 00:00:58;;;;;;;;;;;20.80;68.90;;;;;;5055685;28;19959;-80
2022/08/23 00:03:23;;;;;;;;;;;20.60;69.20;;;;;;5072547;28;19919;-80
2022/08/23 00:05:48;;;;;;;;;;;20.60;69.40;;;;;;5065674;28;19916;-80
2022/08/23 00:08:14;;;;;;;;;;;20.60;70.10;;;;;;5060013;28;20039;-80
2022/08/23 00:10:39;;;;;;;;;;;20.60;70.00;;;;;;5053314;28;20368;-80
2022/08/23 00:13:05;;;;;;;;;;;20.60;70.80;;;;;;5066936;28;19920;-80
2022/08/23 00:15:30;;;;;;;;;;;20.60;70.60;;;;;;5067862;28;19919;-80
2022/08/23 00:17:56;;;;;;;;;;;20.60;71.20;;;;;;5066149;28;19921;-80
2022/08/23 00:20:21;;;;;;;;;;;20.60;70.70;;;;;;5070090;28;20441;-80
2022/08/23 00:22:47;;;;;;;;;;;20.60;70.80;;;;;;5067667;28;20328;-80
2022/08/23 00:25:12;;;;;;;;;;;20.60;70.80;;;;;;5050956;28;19913;-80
2022/08/23 00:27:38;;;;;;;;;;;20.60;71.20;;;;;;5068540;28;19924;-80
2022/08/23 00:30:05;;;;;;;;;;;20.60;70.60;;;;;;5062964;28;19916;-80
2022/08/23 00:32:31;;;;;;;;;;;20.60;70.50;;;;;;5071677;28;20358;-80
2022/08/23 00:34:58;;;;;;;;;;;20.50;70.60;;;;;;5067268;28;19912;-80
2022/08/23 00:37:24;;;;;;;;;;;20.50;70.70;;;;;;5063566;28;20532;-81
2022/08/23 00:39:49;;;;;;;;;;;20.40;70.80;;;;;;5053519;28;19966;-80
2022/08/23 00:47:59;;;;;;;;;;;20.10;71.00;;;;;;5064831;28;19962;-80
2022/08/23 00:50:25;;;;;;;;;;;20.00;71.10;;;;;;5067397;28;19969;-80
2022/08/23 00:52:58;;;;;;;;;;;20.00;72.50;;;;;;5051905;28;19920;-80
2022/08/23 00:55:24;;;;;;;;;;;19.90;72.60;;;;;;5072633;28;19928;-80
2022/08/23 00:57:50;;;;;;;;;;;19.90;72.80;;;;;;5065100;28;19917;-80
2022/08/23 01:00:15;;;;;;;;;;;19.80;73.20;;;;;;5051324;28;19965;-80
2022/08/23 01:02:41;;;;;;;;;;;19.80;72.80;;;;;;5051533;28;19913;-80
2022/08/23 01:05:06;;;;;;;;;;;19.80;72.70;;;;;;5050135;28;19970;-80
2022/08/23 01:07:40;;;;;;;;;;;19.80;72.60;;;;;;5050774;28;19916;-80
2022/08/23 01:10:08;;;;;;;;;;;19.70;72.50;;;;;;5055067;28;19983;-80
2022/08/23 01:12:36;;;;;;;;;;;19.80;73.50;;;;;;5053180;28;19912;-80
2022/08/23 01:15:22;;;;;;;;;;;19.70;73.40;;;;;;5070834;28;19916;-80
2022/08/23 01:17:50;;;;;;;;;;;19.70;73.50;;;;;;5072573;28;20342;-80
2022/08/23 01:20:20;;;;;;;;;;;19.70;73.70;;;;;;5075036;28;19919;-80
2022/08/23 01:23:00;;;;;;;;;;;19.70;73.50;;;;;;5067915;28;19923;-80
2022/08/23 01:25:27;;;;;;;;;;;19.70;73.80;;;;;;5069467;28;19967;-80
2022/08/23 01:27:53;;;;;;;;;;;19.60;74.20;;;;;;5076395;28;20305;-80
2022/08/23 01:30:22;;;;;;;;;;;19.60;74.30;;;;;;5075515;28;19916;-80
2022/08/23 01:32:49;;;;;;;;;;;19.60;74.10;;;;;;5065372;28;19917;-80
2022/08/23 01:35:16;;;;;;;;;;;19.60;74.50;;;;;;5072226;28;19943;-80
2022/08/23 01:37:43;;;;;;;;;;;19.50;74.80;;;;;;5068974;28;19917;-80
2022/08/23 01:40:08;;;;;;;;;;;19.60;74.40;;;;;;5053024;28;19923;-80
2022/08/23 01:42:34;;;;;;;;;;;19.50;74.30;;;;;;5069981;28;19931;-80
2022/08/23 01:45:00;;;;;;;;;;;19.50;74.80;;;;;;5052572;28;20772;-80
2022/08/23 01:47:25;;;;;;;;;;;19.50;74.20;;;;;;5051835;28;20312;-80
2022/08/23 01:49:51;;;;;;;;;;;19.50;74.10;;;;;;5058150;28;19959;-80
2022/08/23 01:52:18;;;;;;;;;;;19.50;74.40;;;;;;5068068;28;19919;-80
2022/08/23 01:54:43;;;;;;;;;;;19.40;75.20;;;;;;5064425;28;19930;-80
2022/08/23 01:57:09;;;;;;;;;;;19.40;75.50;;;;;;5050409;28;20007;-80
2022/08/23 01:59:35;;;;;;;;;;;19.30;75.10;;;;;;5050472;28;19913;-80
2022/08/23 02:02:02;;;;;;;;;;;19.30;75.10;;;;;;5070514;28;20018;-81
2022/08/23 02:04:27;;;;;;;;;;;19.20;75.50;;;;;;5049429;28;20014;-80
2022/08/23 02:06:53;;;;;;;;;;;19.20;75.10;;;;;;5066020;28;20007;-81
2022/08/23 02:09:18;;;;;;;;;;;19.20;75.50;;;;;;5073791;28;19920;-80
2022/08/23 02:11:44;;;;;;;;;;;19.20;75.90;;;;;;5069615;28;19931;-81
2022/08/23 02:14:11;;;;;;;;;;;19.10;75.90;;;;;;5068950;28;20273;-80
2022/08/23 02:16:40;;;;;;;;;;;19.10;75.50;;;;;;5067137;28;19928;-80
2022/08/23 02:19:07;;;;;;;;;;;19.10;75.40;;;;;;5053078;28;19913;-80
2022/08/23 02:21:33;;;;;;;;;;;19.10;75.60;;;;;;5062855;28;19919;-81
2022/08/23 02:24:02;;;;;;;;;;;19.10;75.30;;;;;;5071263;28;20388;-80
2022/08/23 02:26:27;;;;;;;;;;;19.00;75.40;;;;;;5066126;28;19917;-80
2022/08/23 02:28:53;;;;;;;;;;;18.90;75.60;;;;;;5049650;28;19935;-80
2022/08/23 02:31:19;;;;;;;;;;;18.80;75.70;;;;;;5069498;28;21932;-80
2022/08/23 02:33:44;;;;;;;;;;;18.80;75.70;;;;;;5055548;28;19912;-80
2022/08/23 02:36:11;;;;;;;;;;;18.70;76.00;;;;;;5072039;28;20367;-80
2022/08/23 02:38:36;;;;;;;;;;;18.70;76.40;;;;;;5066929;28;19923;-80
2022/08/23 02:41:02;;;;;;;;;;;18.70;76.60;;;;;;5072218;28;19916;-80
2022/08/23 02:43:27;;;;;;;;;;;18.70;76.70;;;;;;5074804;28;20321;-80
2022/08/23 02:45:53;;;;;;;;;;;18.70;76.50;;;;;;5050222;28;20015;-80
2022/08/23 02:48:18;;;;;;;;;;;18.70;76.80;;;;;;5067292;28;19924;-80
2022/08/23 02:50:44;;;;;;;;;;;18.60;76.70;;;;;;5049319;28;19948;-80
2022/08/23 02:53:09;;;;;;;;;;;18.60;77.00;;;;;;5072320;28;20384;-80
2022/08/23 02:55:35;;;;;;;;;;;18.60;77.70;;;;;;5070864;28;20285;-80
2022/08/23 02:58:00;;;;;;;;;;;18.60;77.10;;;;;;5076660;28;20013;-81
2022/08/23 03:00:26;;;;;;;;;;;18.60;77.10;;;;;;5070865;28;19912;-81
2022/08/23 03:02:52;;;;;;;;;;;18.60;76.50;;;;;;5069330;28;20331;-81
2022/08/23 03:05:17;;;;;;;;;;;18.60;77.20;;;;;;5071992;28;19951;-81
2022/08/23 03:07:43;;;;;;;;;;;18.70;76.70;;;;;;5068005;28;20346;-81
2022/08/23 03:10:09;;;;;;;;;;;18.60;76.90;;;;;;5068013;28;19917;-80
2022/08/23 03:12:34;;;;;;;;;;;18.70;76.40;;;;;;5069352;28;19921;-80
2022/08/23 03:15:00;;;;;;;;;;;18.70;76.30;;;;;;5067933;28;19920;-80
2022/08/23 03:17:26;;;;;;;;;;;18.60;76.50;;;;;;5075931;28;19912;-80
2022/08/23 03:19:51;;;;;;;;;;;18.50;76.80;;;;;;5071403;28;19948;-80
2022/08/23 03:22:17;;;;;;;;;;;18.50;77.10;;;;;;5069253;28;19979;-81
2022/08/23 03:24:42;;;;;;;;;;;18.50;76.80;;;;;;5050140;28;20019;-80
2022/08/23 03:27:09;;;;;;;;;;;18.50;76.70;;;;;;5067906;28;19987;-81
2022/08/23 03:29:34;;;;;;;;;;;18.40;76.90;;;;;;5059235;28;19927;-80
2022/08/23 03:32:00;;;;;;;;;;;18.30;76.70;;;;;;5069388;28;20296;-80
2022/08/23 03:34:25;;;;;;;;;;;18.30;77.00;;;;;;5073199;28;19913;-80
2022/08/23 03:36:51;;;;;;;;;;;18.10;76.90;;;;;;5065973;28;19912;-80
2022/08/23 03:39:16;;;;;;;;;;;18.00;77.30;;;;;;5064253;28;20353;-80
2022/08/23 03:41:42;;;;;;;;;;;17.90;77.90;;;;;;5065307;28;19912;-80
2022/08/23 03:44:07;;;;;;;;;;;17.90;78.00;;;;;;5050946;28;19952;-80
2022/08/23 03:46:33;;;;;;;;;;;17.90;78.20;;;;;;5060511;28;20218;-81
2022/08/23 03:49:00;;;;;;;;;;;17.90;78.20;;;;;;5071603;28;20973;-81
2022/08/23 03:51:26;;;;;;;;;;;17.80;78.40;;;;;;5072430;28;19918;-80
2022/08/23 03:53:51;;;;;;;;;;;17.90;78.50;;;;;;5048835;28;20019;-80
2022/08/23 03:56:20;;;;;;;;;;;17.90;78.40;;;;;;5070861;28;19955;-81
2022/08/23 03:58:45;;;;;;;;;;;17.90;78.60;;;;;;5056972;28;19913;-81
2022/08/23 04:01:11;;;;;;;;;;;17.90;78.80;;;;;;5074297;28;19967;-81
2022/08/23 04:03:36;;;;;;;;;;;17.90;78.90;;;;;;5064012;28;19921;-81
2022/08/23 04:06:02;;;;;;;;;;;17.80;78.60;;;;;;5056338;28;19927;-81
2022/08/23 04:08:27;;;;;;;;;;;17.90;78.90;;;;;;5070424;28;19924;-81
2022/08/23 04:10:53;;;;;;;;;;;17.90;78.90;;;;;;5071907;28;19913;-80
2022/08/23 04:13:19;;;;;;;;;;;17.90;78.80;;;;;;5068155;28;20054;-81
2022/08/23 04:15:44;;;;;;;;;;;17.90;78.80;;;;;;5049762;28;19917;-81
2022/08/23 04:18:10;;;;;;;;;;;17.90;78.70;;;;;;5049495;28;19924;-81
2022/08/23 04:20:35;;;;;;;;;;;17.80;78.60;;;;;;5045809;28;20070;-81
2022/08/23 04:23:01;;;;;;;;;;;17.90;78.80;;;;;;5072178;28;19940;-81
2022/08/23 04:25:27;;;;;;;;;;;17.80;78.90;;;;;;5051528;28;19920;-80
2022/08/23 04:27:53;;;;;;;;;;;17.80;78.80;;;;;;5069249;28;19923;-81
2022/08/23 04:30:19;;;;;;;;;;;17.80;78.10;;;;;;5054156;28;19919;-80
2022/08/23 04:32:45;;;;;;;;;;;17.80;78.30;;;;;;5079056;28;19912;-81
2022/08/23 04:35:11;;;;;;;;;;;17.70;78.40;;;;;;5069894;28;20365;-81
2022/08/23 04:37:36;;;;;;;;;;;17.70;78.40;;;;;;5069902;28;19913;-80
2022/08/23 04:42:47;;;;;;;;;;;17.70;79.20;;;;;;5069139;28;20009;-81
2022/08/23 04:45:13;;;;;;;;;;;17.80;78.90;;;;;;5049595;28;19914;-81
2022/08/23 04:47:43;;;;;;;;;;;17.80;79.00;;;;;;5070362;28;20207;-81
2022/08/23 04:50:08;;;;;;;;;;;17.90;78.90;;;;;;5077740;28;19919;-81
2022/08/23 04:52:34;;;;;;;;;;;17.80;78.60;;;;;;5052708;28;19920;-81
2022/08/23 04:54:59;;;;;;;;;;;17.80;78.30;;;;;;5072733;28;19980;-81
2022/08/23 04:57:25;;;;;;;;;;;17.80;78.30;;;;;;5069289;28;19923;-80
2022/08/23 04:59:50;;;;;;;;;;;17.80;78.40;;;;;;5076992;28;20011;-80
2022/08/23 05:02:15;;;;;;;;;;;17.90;78.30;;;;;;5055201;28;20400;-80
2022/08/23 05:04:41;;;;;;;;;;;17.90;78.40;;;;;;5074405;28;20368;-80
2022/08/23 05:07:06;;;;;;;;;;;17.80;78.40;;;;;;5056733;28;19924;-80
2022/08/23 05:09:32;;;;;;;;;;;17.80;78.50;;;;;;5069399;28;19916;-80
2022/08/23 05:11:57;;;;;;;;;;;17.70;78.50;;;;;;5069064;28;19966;-81
2022/08/23 05:14:23;;;;;;;;;;;17.60;78.80;;;;;;5065169;28;19912;-81
2022/08/23 05:16:48;;;;;;;;;;;17.50;79.20;;;;;;5060186;28;19974;-81
2022/08/23 05:19:14;;;;;;;;;;;17.60;79.50;;;;;;5080271;28;19912;-81
2022/08/23 05:21:39;;;;;;;;;;;17.70;79.30;;;;;;5087686;28;19916;-83
2022/08/23 05:24:05;;;;;;;;;;;17.70;80.00;;;;;;5065825;28;19916;-84
2022/08/23 05:26:30;;;;;;;;;;;17.80;79.50;;;;;;5079371;28;19944;-83
2022/08/23 05:28:56;;;;;;;;;;;17.80;79.10;;;;;;5079678;28;19912;-84
2022/08/23 05:31:22;;;;;;;;;;;17.80;79.40;;;;;;5075466;28;20057;-86
2022/08/23 05:33:48;;;;;;;;;;;17.90;79.30;;;;;;5069782;28;19916;-86
2022/08/23 05:36:14;;;;;;;;;;;17.90;78.80;;;;;;5073772;28;19912;-85
2022/08/23 05:38:40;;;;;;;;;;;18.00;79.20;;;;;;5064240;28;19923;-85
2022/08/23 05:41:06;;;;;;;;;;;18.00;78.80;;;;;;5071069;28;19985;-84
2022/08/23 05:43:32;;;;;;;;;;;18.10;78.90;;;;;;5050002;28;19938;-86
2022/08/23 05:45:58;;;;;;;;;;;18.10;78.80;;;;;;5056466;28;20045;-86
2022/08/23 05:48:23;;;;;;;;;;;18.10;79.00;;;;;;5065256;28;19925;-84
2022/08/23 05:50:49;;;;;;;;;;;18.30;79.40;;;;;;5056536;28;19970;-84
2022/08/23 05:53:16;;;;;;;;;;;18.30;79.50;;;;;;5066501;28;20301;-83
2022/08/23 05:55:42;;;;;;;;;;;18.40;79.80;;;;;;5059005;28;19917;-83
2022/08/23 05:58:07;;;;;;;;;;;18.50;80.40;;;;;;5064010;28;19920;-85
2022/08/23 06:00:33;;;;;;;;;;;18.50;80.40;;;;;;5051244;28;20015;-86
2022/08/23 06:02:58;;;;;;;;;;;18.60;81.00;;;;;;5071817;28;20326;-86
2022/08/23 06:05:24;;;;;;;;;;;18.60;81.00;;;;;;5070599;28;20254;-86
2022/08/23 06:07:50;;;;;;;;;;;18.70;81.20;;;;;;5048261;28;19996;-85
2022/08/23 06:10:18;;;;;;;;;;;18.80;81.00;;;;;;5068919;28;20373;-86
2022/08/23 06:12:43;;;;;;;;;;;18.90;81.00;;;;;;5050093;28;19908;-85
2022/08/23 06:15:09;;;;;;;;;;;18.90;81.10;;;;;;5071016;28;19916;-86
2022/08/23 06:17:34;;;;;;;;;;;19.00;80.50;;;;;;5041923;28;19920;-85
2022/08/23 06:20:00;;;;;;;;;;;19.00;79.60;;;;;;5073788;28;19916;-85
2022/08/23 06:22:26;;;;;;;;;;;19.00;78.50;;;;;;5063645;28;19924;-85
2022/08/23 06:24:52;;;;;;;;;;;19.00;76.90;;;;;;5074937;28;19919;-85
2022/08/23 06:27:17;;;;;;;;;;;19.20;76.90;;;;;;5066235;28;19994;-85
2022/08/23 06:29:43;;;;;;;;;;;19.20;76.50;;;;;;5060298;28;20020;-86
2022/08/23 06:32:08;;;;;;;;;;;19.30;76.80;;;;;;5061927;28;19980;-85
2022/08/23 06:34:35;;;;;;;;;;;19.30;77.20;;;;;;5056498;28;19928;-86
2022/08/23 06:37:08;;;;;;;;;;;19.40;76.70;;;;;;5071533;28;19912;-86
2022/08/23 06:39:34;;;;;;;;;;;19.50;76.40;;;;;;5055143;28;20482;-86
2022/08/23 06:42:11;;;;;;;;;;;19.50;75.60;;;;;;5050021;28;20400;-86
2022/08/23 06:44:37;;;;;;;;;;;19.50;75.30;;;;;;5071760;28;19944;-85
2022/08/23 06:47:03;;;;;;;;;;;19.60;75.40;;;;;;5055061;28;19978;-84
2022/08/23 06:49:28;;;;;;;;;;;19.70;75.20;;;;;;5072688;28;19912;-86
2022/08/23 06:51:55;;;;;;;;;;;19.80;74.60;;;;;;5062208;28;19973;-86
2022/08/23 06:54:23;;;;;;;;;;;20.00;74.10;;;;;;5067613;28;19916;-86
2022/08/23 06:56:49;;;;;;;;;;;20.00;73.30;;;;;;5072904;28;19912;-85
2022/08/23 06:59:15;;;;;;;;;;;20.30;70.50;;;;;;5060580;28;19962;-85
2022/08/23 07:01:45;;;;;;;;;;;20.40;69.40;;;;;;5077269;28;19976;-82
2022/08/23 07:04:12;;;;;;;;;;;20.50;67.10;;;;;;5076228;28;19956;-83
2022/08/23 07:06:38;;;;;;;;;;;20.70;66.10;;;;;;5080579;28;19920;-82
2022/08/23 07:09:04;;;;;;;;;;;20.80;66.30;;;;;;5080199;28;19916;-83
2022/08/23 07:11:31;;;;;;;;;;;20.70;67.20;;;;;;5064273;28;19913;-82
2022/08/23 07:13:58;;;;;;;;;;;21.00;64.80;;;;;;5076684;28;20003;-82
2022/08/23 07:16:24;;;;;;;;;;;21.10;64.60;;;;;;5066746;28;19915;-83
2022/08/23 07:18:51;;;;;;;;;;;21.10;64.00;;;;;;5038036;28;19917;-81
2022/08/23 07:21:18;;;;;;;;;;;21.10;62.50;;;;;;5071741;28;19977;-83
2022/08/23 07:23:44;;;;;;;;;;;21.20;62.50;;;;;;5037602;28;20011;-80
2022/08/23 07:26:10;;;;;;;;;;;21.30;60.60;;;;;;5072103;28;19947;-81
2022/08/23 07:28:37;;;;;;;;;;;21.60;59.30;;;;;;5052399;28;19931;-81
2022/08/23 07:31:13;;;;;;;;;;;21.70;60.30;;;;;;5068542;28;19973;-83
2022/08/23 07:33:39;;;;;;;;;;;21.90;59.20;;;;;;5052454;28;19963;-81
2022/08/23 07:36:05;;;;;;;;;;;22.00;57.50;;;;;;5069780;28;19912;-80
2022/08/23 07:38:31;;;;;;;;;;;22.00;57.20;;;;;;5072879;28;20371;-80
2022/08/23 07:40:57;;;;;;;;;;;22.10;59.50;;;;;;5071467;28;19919;-81
2022/08/23 07:43:22;;;;;;;;;;;22.10;57.40;;;;;;5056371;28;19909;-81
2022/08/23 07:45:48;;;;;;;;;;;22.20;57.90;;;;;;5053886;28;19935;-80
2022/08/23 07:48:14;;;;;;;;;;;22.30;56.70;;;;;;5072844;28;19912;-80
2022/08/23 07:50:39;;;;;;;;;;;22.30;56.80;;;;;;5072448;28;20448;-80
2022/08/23 07:53:05;;;;;;;;;;;22.30;55.40;;;;;;5065657;28;19923;-81
2022/08/23 07:55:31;;;;;;;;;;;22.50;56.20;;;;;;5048924;28;19917;-81
2022/08/23 07:57:57;;;;;;;;;;;22.60;56.70;;;;;;5076125;28;20442;-81
2022/08/23 08:00:22;;;;;;;;;;;22.70;56.10;;;;;;5072821;28;20300;-81
2022/08/23 08:02:48;;;;;;;;;;;22.70;54.40;;;;;;5056861;28;19912;-81
2022/08/23 08:05:13;;;;;;;;;;;22.80;53.50;;;;;;5055954;28;20388;-81
2022/08/23 08:07:42;;;;;;;;;;;23.00;53.30;;;;;;5053395;28;19921;-81
2022/08/23 08:10:08;;;;;;;;;;;23.00;53.70;;;;;;5072556;28;20015;-81
2022/08/23 08:12:33;;;;;;;;;;;23.10;54.40;;;;;;5061427;28;19952;-82
2022/08/23 08:14:58;;;;;;;;;;;23.20;52.20;;;;;;5056116;28;20292;-82
2022/08/23 08:17:24;;;;;;;;;;;23.20;51.70;;;;;;5076149;28;19995;-82
2022/08/23 08:19:49;;;;;;;;;;;23.30;51.80;;;;;;5063429;28;19923;-80
2022/08/23 08:22:15;;;;;;;;;;;23.30;51.30;;;;;;5097045;28;19973;-80
2022/08/23 08:24:41;;;;;;;;;;;23.20;52.70;;;;;;5072198;28;19919;-80
2022/08/23 08:27:07;;;;;;;;;;;23.20;52.10;;;;;;5086145;28;19916;-81
2022/08/23 08:29:33;;;;;;;;;;;23.40;52.20;;;;;;5080662;28;19912;-81
2022/08/23 08:31:59;;;;;;;;;;;23.50;52.30;;;;;;5073622;28;19948;-81
2022/08/23 08:34:24;;;;;;;;;;;23.60;51.40;;;;;;5068028;28;19920;-81
2022/08/23 08:36:52;;;;;;;;;;;23.50;52.20;;;;;;5074103;28;19980;-81
2022/08/23 08:39:19;;;;;;;;;;;23.50;53.90;;;;;;5073785;28;20291;-81
2022/08/23 08:41:50;;;;;;;;;;;23.50;54.00;;;;;;5077090;28;20388;-81
2022/08/23 08:44:18;;;;;;;;;;;23.70;53.70;;;;;;5080017;28;19909;-81
2022/08/23 08:46:45;;;;;;;;;;;23.80;52.30;;;;;;5078166;28;19920;-81
2022/08/23 08:49:34;;;;;;;;;;;23.90;52.40;;;;;;5072478;28;19917;-82
2022/08/23 08:52:26;;;;;;;;;;;24.10;52.50;;;;;;5056563;28;19923;-80
2022/08/23 08:54:59;;;;;;;;;;;23.90;51.70;;;;;;5063616;28;19923;-81
2022/08/23 08:57:24;;;;;;;;;;;23.90;50.20;;;;;;5053695;28;19924;-83
2022/08/23 08:59:54;;;;;;;;;;;24.00;51.10;;;;;;5076742;28;19908;-83
2022/08/23 09:02:20;;;;;;;;;;;24.00;50.70;;;;;;5070662;28;19924;-85
2022/08/23 09:04:46;;;;;;;;;;;24.10;50.40;;;;;;5075372;28;19920;-83
2022/08/23 09:07:36;;;;;;;;;;;24.00;50.00;;;;;;5076062;28;19925;-85
2022/08/23 09:10:16;;;;;;;;;;;24.00;50.90;;;;;;5054041;28;19924;-84
2022/08/23 09:12:42;;;;;;;;;;;24.10;50.30;;;;;;5078144;28;19925;-84
2022/08/23 09:15:07;;;;;;;;;;;24.20;49.90;;;;;;5082465;28;19916;-85
2022/08/23 09:17:36;;;;;;;;;;;24.30;50.60;;;;;;5080694;28;19947;-84
2022/08/23 09:20:03;;;;;;;;;;;24.30;51.70;;;;;;5080748;28;20020;-83
2022/08/23 09:22:32;;;;;;;;;;;24.30;52.50;;;;;;5055492;28;20011;-81
2022/08/23 09:24:58;;;;;;;;;;;24.40;51.30;;;;;;5083137;28;19920;-82
2022/08/23 09:27:23;;;;;;;;;;;24.50;50.40;;;;;;5045000;28;19917;-82
2022/08/23 09:29:57;;;;;;;;;;;24.50;49.60;;;;;;5065401;23;19924;-80
2022/08/23 09:32:42;;;;;;;;;;;24.60;49.40;;;;;;5062768;28;19912;-82
2022/08/23 09:35:15;;;;;;;;;;;24.50;49.70;;;;;;5075859;28;19916;-80
2022/08/23 09:38:18;;;;;;;;;;;24.50;51.00;;;;;;5056525;28;19909;-79
2022/08/23 09:40:45;;;;;;;;;;;24.60;50.60;;;;;;4957224;28;20435;-80
2022/08/23 09:43:12;;;;;;;;;;;24.80;49.40;;;;;;5050692;28;19913;-80
2022/08/23 09:45:52;;;;;;;;;;;24.80;48.20;;;;;;5052984;28;20279;-80
2022/08/23 09:48:30;;;;;;;;;;;24.80;47.20;;;;;;5063498;28;19956;-80
2022/08/23 09:51:01;;;;;;;;;;;24.70;48.50;;;;;;5054718;28;20406;-82
2022/08/23 09:53:27;;;;;;;;;;;24.70;49.00;;;;;;5063860;28;19967;-80
2022/08/23 09:55:54;;;;;;;;;;;24.90;47.90;;;;;;5043286;28;20003;-81
2022/08/23 09:58:34;;;;;;;;;;;25.00;46.70;;;;;;5070745;28;19948;-80
2022/08/23 10:01:06;;;;;;;;;;;25.00;47.00;;;;;;5055356;28;19919;-80
2022/08/23 10:03:31;;;;;;;;;;;25.00;48.00;;;;;;5067488;28;19920;-80
2022/08/23 10:05:58;;;;;;;;;;;25.10;47.30;;;;;;5071308;28;20474;-80
2022/08/23 10:08:27;;;;;;;;;;;25.00;47.30;;;;;;5050740;28;19916;-86
2022/08/23 10:10:55;;;;;;;;;;;25.00;48.70;;;;;;5070409;28;19955;-81
2022/08/23 10:13:21;;;;;;;;;;;25.20;48.60;;;;;;5069354;28;19912;-81
2022/08/23 10:16:10;;;;;;;;;;;25.50;49.90;;;;;;5058776;28;19913;-81
2022/08/23 10:18:44;;;;;;;;;;;25.90;48.00;;;;;;5042874;28;20390;-80
2022/08/23 10:21:17;;;;;;;;;;;26.00;46.00;;;;;;5054462;28;20295;-81
2022/08/23 10:23:49;;;;;;;;;;;26.00;45.60;;;;;;5063947;28;19917;-81
2022/08/23 10:26:23;;;;;;;;;;;25.80;46.60;;;;;;5054999;28;20294;-81
2022/08/23 10:31:56;;;;;;;;;;;26.00;47.00;;;;;;5067795;28;19939;-80
2022/08/23 10:34:42;;;;;;;;;;;25.90;46.70;;;;;;5052198;28;19970;-80
2022/08/23 10:37:25;;;;;;;;;;;26.10;45.20;;;;;;5048361;28;19923;-81
2022/08/23 10:39:54;;;;;;;;;;;26.10;46.00;;;;;;5051886;28;19913;-81
2022/08/23 10:42:37;;;;;;;;;;;26.10;45.80;;;;;;5068213;28;19912;-81
2022/08/23 10:45:15;;;;;;;;;;;26.00;47.70;;;;;;5051865;28;19920;-82
2022/08/23 10:48:01;;;;;;;;;;;26.10;45.20;;;;;;5068980;28;19939;-82
2022/08/23 10:50:31;;;;;;;;;;;26.10;45.20;;;;;;5069944;28;19974;-84
2022/08/23 10:53:00;;;;;;;;;;;26.30;46.10;;;;;;5065441;28;19966;-87
2022/08/23 10:55:35;;;;;;;;;;;26.20;47.40;;;;;;5069089;28;19943;-85
2022/08/23 10:58:05;;;;;;;;;;;26.30;46.70;;;;;;5044780;28;19913;-84
2022/08/23 11:00:31;;;;;;;;;;;26.30;46.20;;;;;;5069912;28;19913;-85
2022/08/23 11:03:19;;;;;;;;;;;26.10;45.70;;;;;;5053837;28;19920;-85
2022/08/23 11:06:04;;;;;;;;;;;26.00;45.90;;;;;;5055924;28;19951;-85
2022/08/23 11:08:32;;;;;;;;;;;26.00;46.30;;;;;;5076127;28;19924;-85
2022/08/23 11:10:57;;;;;;;;;;;26.00;45.80;;;;;;5073107;28;19913;-85
2022/08/23 11:13:25;;;;;;;;;;;25.90;45.30;;;;;;5048739;28;19920;-85
2022/08/23 11:15:59;;;;;;;;;;;25.90;45.00;;;;;;5071438;28;19919;-85
2022/08/23 11:18:25;;;;;;;;;;;25.90;46.50;;;;;;5046882;28;19943;-82
2022/08/23 11:20:54;;;;;;;;;;;26.30;47.00;;;;;;5050040;28;20299;-80
2022/08/23 11:23:37;;;;;;;;;;;26.40;44.80;;;;;;5069203;28;19913;-81
2022/08/23 11:26:04;;;;;;;;;;;26.40;45.70;;;;;;5068240;28;19917;-83
2022/08/23 11:28:43;;;;;;;;;;;26.50;44.90;;;;;;5056459;28;19943;-82
2022/08/23 11:31:26;;;;;;;;;;;26.80;45.30;;;;;;5058142;28;19946;-84
2022/08/23 11:34:11;;;;;;;;;;;26.90;45.70;;;;;;5053776;28;19909;-83
2022/08/23 11:36:36;;;;;;;;;;;26.70;43.50;;;;;;5045555;28;19917;-84
2022/08/23 11:39:07;;;;;;;;;;;26.90;43.10;;;;;;5068618;28;19939;-80
2022/08/23 11:41:35;;;;;;;;;;;27.10;42.70;;;;;;5064718;28;20442;-82
2022/08/23 11:44:00;;;;;;;;;;;27.30;42.40;;;;;;5066537;28;19913;-81
2022/08/23 11:46:30;;;;;;;;;;;27.30;41.90;;;;;;5067194;28;19920;-80
2022/08/23 11:49:02;;;;;;;;;;;27.30;43.70;;;;;;5056642;28;20307;-82
2022/08/23 11:51:36;;;;;;;;;;;27.20;41.70;;;;;;5072736;28;20027;-80
2022/08/23 11:54:04;;;;;;;;;;;27.10;43.60;;;;;;5072623;28;19920;-81
2022/08/23 11:56:48;;;;;;;;;;;27.10;43.90;;;;;;5064375;28;20231;-81
2022/08/23 11:59:33;;;;;;;;;;;27.50;42.70;;;;;;5047107;28;19912;-80
2022/08/23 12:02:30;;;;;;;;;;;27.60;41.30;;;;;;5063302;28;20337;-81
2022/08/23 12:04:58;;;;;;;;;;;27.80;40.70;;;;;;5051072;28;19931;-81
2022/08/23 12:07:42;;;;;;;;;;;28.10;40.90;;;;;;5072560;28;19917;-81
2022/08/23 12:10:08;;;;;;;;;;;28.10;40.60;;;;;;5063859;28;19916;-81
2022/08/23 12:12:34;;;;;;;;;;;27.90;40.60;;;;;;5054688;28;19917;-81
2022/08/23 12:15:02;;;;;;;;;;;27.70;41.00;;;;;;5050294;28;19982;-81
2022/08/23 12:17:28;;;;;;;;;;;27.80;40.00;;;;;;5047408;28;19912;-83
2022/08/23 12:19:57;;;;;;;;;;;27.80;40.40;;;;;;5068597;28;19917;-85
2022/08/23 12:22:25;;;;;;;;;;;27.70;41.00;;;;;;5052420;28;19935;-83
2022/08/23 12:24:54;;;;;;;;;;;27.80;40.50;;;;;;5073021;28;19919;-85
2022/08/23 12:27:22;;;;;;;;;;;27.90;41.00;;;;;;5054195;28;20342;-82
2022/08/23 12:29:51;;;;;;;;;;;27.80;41.10;;;;;;5056238;28;20429;-83
2022/08/23 12:32:35;;;;;;;;;;;28.10;41.00;;;;;;5072315;28;19913;-85
2022/08/23 12:35:09;;;;;;;;;;;28.10;40.70;;;;;;5057657;28;20007;-85
2022/08/23 12:37:53;;;;;;;;;;;28.10;41.20;;;;;;5051966;28;20361;-83
2022/08/23 12:40:28;;;;;;;;;;;28.10;40.00;;;;;;5079923;28;19913;-83
2022/08/23 12:43:01;;;;;;;;;;;28.00;42.00;;;;;;5053256;28;19995;-83
2022/08/23 12:45:34;;;;;;;;;;;28.10;40.70;;;;;;5077360;28;19931;-84
2022/08/23 12:48:01;;;;;;;;;;;28.10;40.50;;;;;;5068938;28;19925;-84
2022/08/23 12:50:31;;;;;;;;;;;28.40;39.90;;;;;;5054137;28;19924;-83
2022/08/23 12:52:59;;;;;;;;;;;28.40;38.90;;;;;;5076550;28;19917;-83
2022/08/23 12:55:28;;;;;;;;;;;28.50;40.60;;;;;;5077598;28;20264;-83
2022/08/23 12:57:56;;;;;;;;;;;28.40;42.00;;;;;;5062967;28;19924;-84
2022/08/23 13:00:22;;;;;;;;;;;28.30;41.60;;;;;;5054555;28;19912;-78
2022/08/23 13:02:56;;;;;;;;;;;28.30;41.30;;;;;;5065891;28;20295;-83
2022/08/23 13:05:31;;;;;;;;;;;28.40;41.80;;;;;;5070937;28;19919;-82
2022/08/23 13:07:57;;;;;;;;;;;28.30;39.00;;;;;;5072192;28;20399;-84
2022/08/23 13:10:23;;;;;;;;;;;28.50;38.90;;;;;;5049265;28;19913;-82
2022/08/23 13:12:49;;;;;;;;;;;28.50;39.50;;;;;;5065104;28;19919;-81
2022/08/23 13:15:34;;;;;;;;;;;28.60;38.70;;;;;;5075254;28;19913;-82
2022/08/23 13:18:00;;;;;;;;;;;28.50;38.60;;;;;;5076094;28;20371;-83
2022/08/23 13:20:26;;;;;;;;;;;28.70;38.20;;;;;;5055792;28;19920;-83
2022/08/23 13:23:02;;;;;;;;;;;28.70;39.10;;;;;;5057728;28;19912;-82
2022/08/23 13:25:33;;;;;;;;;;;28.80;38.80;;;;;;5053526;28;20425;-82
2022/08/23 13:28:01;;;;;;;;;;;28.90;38.80;;;;;;5065108;28;19924;-82
2022/08/23 13:30:49;;;;;;;;;;;28.90;38.40;;;;;;5049322;28;19958;-82
2022/08/23 13:33:15;;;;;;;;;;;29.00;39.40;;;;;;5055578;28;19922;-80
2022/08/23 13:35:44;;;;;;;;;;;29.00;39.40;;;;;;5042905;28;20003;-81
2022/08/23 13:38:12;;;;;;;;;;;28.70;40.60;;;;;;5056739;28;19924;-81
2022/08/23 13:40:38;;;;;;;;;;;29.00;39.80;;;;;;5066818;28;19926;-81
2022/08/23 13:43:06;;;;;;;;;;;28.90;38.10;;;;;;5066638;28;19921;-82
2022/08/23 13:45:33;;;;;;;;;;;29.00;37.50;;;;;;5053350;28;20517;-81
2022/08/23 13:48:07;;;;;;;;;;;29.10;37.40;;;;;;5036090;28;19920;-80
2022/08/23 13:50:35;;;;;;;;;;;29.30;36.90;;;;;;5035327;28;19953;-81
2022/08/23 13:53:00;;;;;;;;;;;29.30;37.50;;;;;;5035683;28;19920;-80
2022/08/23 13:55:27;;;;;;;;;;;29.50;36.90;;;;;;5053763;28;20375;-80
2022/08/23 13:57:53;;;;;;;;;;;29.60;36.50;;;;;;5054561;28;19913;-81
2022/08/23 14:00:19;;;;;;;;;;;29.70;35.90;;;;;;5054970;28;19966;-83
2022/08/23 14:02:48;;;;;;;;;;;29.50;36.60;;;;;;5036637;28;19920;-80
2022/08/23 14:05:18;;;;;;;;;;;29.40;37.00;;;;;;5040294;28;19970;-80
2022/08/23 14:07:45;;;;;;;;;;;29.50;35.90;;;;;;5037005;28;19977;-84
2022/08/23 14:10:11;;;;;;;;;;;29.30;36.20;;;;;;5037368;28;20452;-81
2022/08/23 14:12:36;;;;;;;;;;;29.50;34.80;;;;;;5057844;28;20006;-80
2022/08/23 14:15:04;;;;;;;;;;;29.40;35.90;;;;;;5035155;28;20418;-80
2022/08/23 14:17:32;;;;;;;;;;;29.50;35.60;;;;;;5036981;28;19920;-80
2022/08/23 14:19:58;;;;;;;;;;;29.50;35.40;;;;;;5053886;28;19921;-80
2022/08/23 14:22:23;;;;;;;;;;;29.70;35.20;;;;;;5055147;28;20799;-80
2022/08/23 14:24:50;;;;;;;;;;;29.70;35.10;;;;;;5052641;28;19958;-82
2022/08/23 14:27:15;;;;;;;;;;;29.70;34.90;;;;;;5035119;28;19927;-82
2022/08/23 14:29:40;;;;;;;;;;;29.70;35.40;;;;;;5055085;28;20299;-82
2022/08/23 14:32:06;;;;;;;;;;;29.60;36.10;;;;;;5035554;28;19932;-80
2022/08/23 14:34:31;;;;;;;;;;;29.60;36.20;;;;;;5051556;28;19925;-81